createdAt,value
2022-11-09T00:00:04.688Z,46.80
2022-11-09T00:02:06.319Z,46.80
2022-11-09T00:04:08.341Z,46.80
2022-11-09T00:06:10.126Z,46.80
2022-11-09T00:08:11.969Z,46.80
2022-11-09T00:10:13.590Z,46.80
2022-11-09T00:12:15.221Z,46.80
2022-11-09T00:14:17.804Z,46.80
2022-11-09T00:16:21.564Z,46.80
2022-11-09T00:18:23.153Z,46.80
2022-11-09T00:20:24.873Z,46.80
2022-11-09T00:22:26.484Z,46.80
2022-11-09T00:24:28.125Z,46.80
2022-11-09T00:26:29.724Z,46.80
2022-11-09T00:28:31.516Z,46.80
2022-11-09T00:30:33.131Z,46.80
2022-11-09T00:32:34.738Z,46.90
2022-11-09T00:34:36.415Z,46.80
2022-11-09T00:36:38.005Z,46.90
2022-11-09T00:38:40.589Z,46.90
2022-11-09T00:40:42.219Z,46.90
2022-11-09T00:42:43.802Z,47.60
2022-11-09T00:44:45.390Z,46.90
2022-11-09T00:46:46.993Z,47.00
2022-11-09T00:48:48.594Z,47.00
2022-11-09T00:50:54.258Z,47.00
2022-11-09T00:52:55.881Z,47.00
2022-11-09T00:54:57.465Z,47.00
2022-11-09T00:56:59.067Z,47.00
2022-11-09T00:59:00.654Z,47.00
2022-11-09T01:01:08.370Z,47.00
2022-11-09T01:03:10.029Z,47.00
2022-11-09T01:05:11.904Z,47.00
2022-11-09T01:07:13.593Z,47.00
2022-11-09T01:09:15.348Z,47.00
2022-11-09T01:11:19.034Z,47.00
2022-11-09T01:13:21.123Z,47.00
2022-11-09T01:15:23.013Z,47.00
2022-11-09T01:17:24.871Z,47.00
2022-11-09T01:19:26.482Z,47.00
2022-11-09T01:21:29.883Z,47.00
2022-11-09T01:23:32.334Z,47.00
2022-11-09T01:25:33.963Z,47.10
2022-11-09T01:27:35.859Z,47.10
2022-11-09T01:29:37.489Z,47.00
2022-11-09T01:31:39.094Z,47.10
2022-11-09T01:33:40.974Z,47.10
2022-11-09T01:35:42.581Z,47.10
2022-11-09T01:37:44.198Z,47.10
2022-11-09T01:39:45.810Z,47.10
2022-11-09T01:41:48.838Z,47.10
2022-11-09T01:44:22.703Z,47.10
2022-11-09T01:46:33.326Z,47.10
2022-11-09T01:48:37.889Z,47.10
2022-11-09T01:51:02.759Z,47.10
2022-11-09T01:53:08.684Z,47.10
2022-11-09T01:55:15.100Z,47.20
2022-11-09T01:57:25.194Z,47.20
2022-11-09T01:59:31.737Z,47.20
2022-11-09T02:01:33.636Z,47.20
2022-11-09T02:03:44.747Z,47.10
2022-11-09T02:05:48.064Z,47.20
2022-11-09T02:07:50.400Z,47.20
2022-11-09T02:10:02.849Z,47.20
2022-11-09T02:12:05.310Z,47.20
2022-11-09T02:14:07.918Z,47.20
2022-11-09T02:16:12.639Z,47.20
2022-11-09T02:18:14.623Z,47.20
2022-11-09T02:20:17.614Z,47.20
2022-11-09T02:22:19.246Z,47.20
2022-11-09T02:24:20.925Z,47.20
2022-11-09T02:26:38.657Z,47.20
2022-11-09T02:28:40.936Z,47.20
2022-11-09T02:30:44.054Z,47.20
2022-11-09T02:32:45.648Z,47.20
2022-11-09T02:34:47.277Z,47.30
2022-11-09T02:36:48.924Z,47.20
2022-11-09T02:38:52.772Z,47.20
2022-11-09T02:40:54.380Z,47.20
2022-11-09T02:42:57.253Z,47.20
2022-11-09T02:44:59.938Z,47.20
2022-11-09T02:47:01.783Z,47.20
2022-11-09T02:49:04.013Z,47.20
2022-11-09T02:51:05.730Z,47.30
2022-11-09T02:53:07.369Z,47.20
2022-11-09T02:55:09.361Z,47.20
2022-11-09T02:57:11.194Z,47.20
2022-11-09T02:59:12.818Z,47.20
2022-11-09T03:01:14.542Z,47.20
2022-11-09T03:03:16.516Z,47.20
2022-11-09T03:05:18.318Z,47.20
2022-11-09T03:07:19.984Z,47.20
2022-11-09T03:09:21.614Z,47.30
2022-11-09T03:11:23.207Z,47.30
2022-11-09T03:13:24.893Z,47.30
2022-11-09T03:15:26.537Z,47.30
2022-11-09T03:17:28.918Z,47.30
2022-11-09T03:19:30.510Z,47.30
2022-11-09T03:21:32.140Z,47.30
2022-11-09T03:23:34.114Z,47.30
2022-11-09T03:25:36.375Z,47.30
2022-11-09T03:27:38.038Z,47.30
2022-11-09T03:29:39.811Z,47.40
2022-11-09T03:31:41.433Z,47.40
2022-11-09T03:33:43.072Z,47.40
2022-11-09T03:35:44.763Z,47.40
2022-11-09T03:37:46.407Z,47.40
2022-11-09T03:39:48.055Z,47.40
2022-11-09T03:41:49.664Z,47.30
2022-11-09T03:43:51.319Z,47.40
2022-11-09T03:45:53.009Z,47.40
2022-11-09T03:47:59.839Z,47.40
2022-11-09T03:50:01.438Z,47.40
2022-11-09T03:52:04.389Z,47.40
2022-11-09T03:54:06.031Z,47.40
2022-11-09T03:56:07.847Z,47.40
2022-11-09T03:58:11.190Z,47.40
2022-11-09T04:00:15.140Z,47.50
2022-11-09T04:02:16.758Z,47.40
2022-11-09T04:04:18.395Z,47.50
2022-11-09T04:06:20.002Z,47.40
2022-11-09T04:08:21.579Z,47.40
2022-11-09T04:10:24.828Z,47.40
2022-11-09T04:12:26.444Z,47.40
2022-11-09T04:14:28.078Z,47.50
2022-11-09T04:16:29.714Z,47.50
2022-11-09T04:18:31.421Z,47.40
2022-11-09T04:20:33.023Z,47.40
2022-11-09T04:22:34.991Z,47.40
2022-11-09T04:24:36.583Z,47.50
2022-11-09T04:26:38.188Z,47.50
2022-11-09T04:28:39.780Z,47.50
2022-11-09T04:30:43.027Z,47.50
2022-11-09T04:32:44.617Z,47.50
2022-11-09T04:34:46.219Z,47.50
2022-11-09T04:36:47.810Z,47.50
2022-11-09T04:38:49.477Z,47.60
2022-11-09T04:40:51.057Z,47.60
2022-11-09T04:42:52.810Z,47.70
2022-11-09T04:44:54.474Z,47.70
2022-11-09T04:46:56.089Z,47.70
2022-11-09T04:48:57.698Z,47.80
2022-11-09T04:51:03.800Z,47.80
2022-11-09T04:53:13.500Z,47.80
2022-11-09T04:55:15.089Z,47.90
2022-11-09T04:57:16.683Z,48.10
2022-11-09T04:59:18.369Z,48.10
2022-11-09T05:01:19.967Z,48.10
2022-11-09T05:03:22.174Z,48.20
2022-11-09T05:05:24.039Z,48.20
2022-11-09T05:07:25.723Z,48.20
2022-11-09T05:09:27.327Z,48.10
2022-11-09T05:11:30.080Z,48.20
2022-11-09T05:13:31.676Z,48.30
2022-11-09T05:15:34.422Z,49.00
2022-11-09T05:17:36.025Z,48.40
2022-11-09T05:19:37.604Z,48.30
2022-11-09T05:21:39.312Z,48.20
2022-11-09T05:23:59.099Z,48.20
2022-11-09T05:26:00.752Z,48.10
2022-11-09T05:28:02.838Z,48.20
2022-11-09T05:30:05.179Z,48.10
2022-11-09T05:32:06.769Z,48.20
2022-11-09T05:34:12.023Z,48.10
2022-11-09T05:36:13.789Z,48.20
2022-11-09T05:38:15.473Z,48.10
2022-11-09T05:40:18.583Z,48.20
2022-11-09T05:42:20.200Z,48.20
2022-11-09T05:44:21.807Z,48.20
2022-11-09T05:46:23.546Z,48.20
2022-11-09T05:48:25.186Z,48.20
2022-11-09T05:50:26.792Z,48.20
2022-11-09T05:52:28.410Z,48.40
2022-11-09T05:54:29.988Z,48.50
2022-11-09T05:56:31.591Z,48.40
2022-11-09T05:58:37.884Z,48.40
2022-11-09T06:00:39.567Z,48.40
2022-11-09T06:02:41.195Z,48.40
2022-11-09T06:04:42.807Z,48.40
2022-11-09T06:06:44.503Z,48.40
2022-11-09T06:08:46.215Z,48.40
2022-11-09T06:10:47.796Z,48.40
2022-11-09T06:12:52.384Z,48.40
2022-11-09T06:14:54.046Z,48.50
2022-11-09T06:16:55.634Z,48.50
2022-11-09T06:18:57.251Z,48.50
2022-11-09T06:21:01.273Z,48.40
2022-11-09T06:23:04.371Z,48.50
2022-11-09T06:25:06.364Z,48.40
2022-11-09T06:27:07.985Z,48.40
2022-11-09T06:29:10.205Z,48.40
2022-11-09T06:31:16.750Z,48.40
2022-11-09T06:33:18.661Z,48.60
2022-11-09T06:35:20.475Z,48.50
2022-11-09T06:37:22.174Z,48.40
2022-11-09T06:39:23.873Z,48.40
2022-11-09T06:41:25.492Z,48.40
2022-11-09T06:43:27.919Z,48.40
2022-11-09T06:45:30.601Z,48.50
2022-11-09T06:47:32.255Z,48.40
2022-11-09T06:49:33.852Z,48.40
2022-11-09T06:51:35.481Z,48.40
2022-11-09T06:53:37.896Z,48.40
2022-11-09T06:55:43.362Z,48.40
2022-11-09T06:57:48.915Z,48.40
2022-11-09T06:59:50.523Z,48.60
2022-11-09T07:01:52.220Z,48.40
2022-11-09T07:03:53.849Z,48.40
2022-11-09T07:05:55.437Z,48.40
2022-11-09T07:07:57.689Z,48.40
2022-11-09T07:09:59.671Z,48.40
2022-11-09T07:12:01.739Z,48.40
2022-11-09T07:14:03.753Z,48.50
2022-11-09T07:16:06.679Z,48.40
2022-11-09T07:18:12.196Z,48.40
2022-11-09T07:20:14.782Z,48.40
2022-11-09T07:22:16.499Z,48.40
2022-11-09T07:24:18.165Z,48.40
2022-11-09T07:26:19.792Z,48.40
2022-11-09T07:28:21.476Z,48.40
2022-11-09T07:30:23.056Z,48.50
2022-11-09T07:32:40.804Z,48.40
2022-11-09T07:34:47.505Z,48.40
2022-11-09T07:36:49.127Z,48.40
2022-11-09T07:38:50.723Z,48.40
2022-11-09T07:40:52.347Z,48.40
2022-11-09T07:42:58.505Z,48.40
2022-11-09T07:45:00.171Z,48.30
2022-11-09T07:47:01.843Z,48.30
2022-11-09T07:49:03.439Z,48.30
2022-11-09T07:51:05.230Z,48.20
2022-11-09T07:53:07.550Z,48.30
2022-11-09T07:55:09.269Z,48.20
2022-11-09T07:57:10.880Z,48.20
2022-11-09T07:59:12.571Z,48.20
2022-11-09T08:01:14.262Z,48.30
2022-11-09T08:03:17.997Z,48.20
2022-11-09T08:05:19.974Z,48.20
2022-11-09T08:07:23.499Z,48.20
2022-11-09T08:09:25.110Z,48.30
2022-11-09T08:11:26.895Z,48.30
2022-11-09T08:13:28.554Z,48.30
2022-11-09T08:15:31.123Z,48.30
2022-11-09T08:17:32.849Z,48.30
2022-11-09T08:19:34.471Z,48.30
2022-11-09T08:21:39.409Z,48.30
2022-11-09T08:23:41.100Z,48.30
2022-11-09T08:25:42.779Z,48.20
2022-11-09T08:27:44.441Z,48.30
2022-11-09T08:29:46.046Z,48.30
2022-11-09T08:31:50.982Z,48.40
2022-11-09T08:33:52.575Z,48.40
2022-11-09T08:35:54.785Z,48.30
2022-11-09T08:37:59.958Z,48.40
2022-11-09T08:40:01.798Z,48.40
2022-11-09T08:42:03.511Z,48.40
2022-11-09T08:44:05.208Z,48.40
2022-11-09T08:46:06.961Z,48.40
2022-11-09T08:48:10.227Z,48.40
2022-11-09T08:50:13.660Z,48.40
2022-11-09T08:52:16.879Z,48.40
2022-11-09T08:54:18.546Z,48.40
2022-11-09T08:56:20.214Z,48.40
2022-11-09T08:58:22.368Z,48.40
2022-11-09T09:00:25.023Z,48.40
2022-11-09T09:02:26.703Z,48.40
2022-11-09T09:04:28.514Z,48.80
2022-11-09T09:06:31.437Z,48.40
2022-11-09T09:08:33.685Z,48.40
2022-11-09T09:10:38.283Z,48.40
2022-11-09T09:12:39.941Z,48.40
2022-11-09T09:14:41.544Z,48.40
2022-11-09T09:16:43.184Z,48.40
2022-11-09T09:18:47.170Z,48.40
2022-11-09T09:20:48.998Z,48.40
2022-11-09T09:22:50.648Z,48.40
2022-11-09T09:24:52.357Z,48.40
2022-11-09T09:26:54.091Z,48.40
2022-11-09T09:28:55.706Z,48.40
2022-11-09T09:31:01.571Z,48.50
2022-11-09T09:33:03.201Z,48.50
2022-11-09T09:35:05.346Z,48.50
2022-11-09T09:37:07.013Z,48.40
2022-11-09T09:39:08.610Z,48.40
2022-11-09T09:41:21.640Z,48.40
2022-11-09T09:43:50.787Z,48.40
2022-11-09T09:45:54.302Z,48.40
2022-11-09T09:48:51.736Z,48.40
2022-11-09T09:50:58.608Z,48.40
2022-11-09T09:53:23.914Z,48.40
2022-11-09T09:55:40.298Z,48.50
2022-11-09T09:57:44.091Z,48.40
2022-11-09T09:59:51.115Z,48.40
2022-11-09T10:01:52.881Z,48.40
2022-11-09T10:03:54.533Z,48.70
2022-11-09T10:06:13.392Z,49.20
2022-11-09T10:08:47.173Z,48.50
2022-11-09T10:11:22.792Z,48.50
2022-11-09T10:13:49.714Z,48.50
2022-11-09T10:16:03.335Z,48.50
2022-11-09T10:18:13.792Z,48.50
2022-11-09T10:20:23.580Z,48.60
2022-11-09T10:23:01.776Z,48.60
2022-11-09T10:25:21.204Z,48.60
2022-11-09T10:27:37.282Z,48.70
2022-11-09T10:29:47.053Z,48.70
2022-11-09T10:31:51.589Z,48.70
2022-11-09T10:34:01.382Z,48.70
2022-11-09T10:36:21.876Z,48.70
2022-11-09T10:38:31.550Z,48.80
2022-11-09T10:40:53.949Z,48.80
2022-11-09T10:42:59.374Z,48.80
2022-11-09T10:45:31.601Z,48.80
2022-11-09T10:47:51.072Z,48.80
2022-11-09T10:50:18.915Z,48.80
2022-11-09T10:52:44.325Z,48.80
2022-11-09T10:54:48.934Z,48.80
2022-11-09T10:57:19.717Z,48.90
2022-11-09T10:59:39.993Z,48.90
2022-11-09T11:01:41.721Z,48.80
2022-11-09T11:03:45.276Z,48.80
2022-11-09T11:06:00.819Z,48.80
2022-11-09T11:08:28.310Z,48.90
2022-11-09T11:10:29.965Z,48.90
2022-11-09T11:12:31.600Z,48.90
2022-11-09T11:14:36.309Z,48.90
2022-11-09T11:16:39.182Z,48.90
2022-11-09T11:18:46.055Z,49.00
2022-11-09T11:20:48.287Z,49.00
2022-11-09T11:22:50.355Z,49.00
2022-11-09T11:25:00.837Z,49.00
2022-11-09T11:27:19.632Z,49.10
2022-11-09T11:29:43.632Z,49.10
2022-11-09T11:31:45.492Z,49.10
2022-11-09T11:33:47.692Z,49.20
2022-11-09T11:35:56.488Z,49.20
2022-11-09T11:38:10.134Z,49.20
2022-11-09T11:40:34.050Z,49.20
2022-11-09T11:42:47.560Z,49.20
2022-11-09T11:45:38.800Z,49.20
2022-11-09T11:47:42.324Z,49.20
2022-11-09T11:50:02.563Z,49.20
2022-11-09T11:52:31.579Z,49.20
2022-11-09T11:54:47.262Z,49.20
2022-11-09T11:57:19.435Z,49.30
2022-11-09T11:59:36.255Z,49.30
2022-11-09T12:02:14.184Z,49.40
2022-11-09T12:04:34.497Z,49.30
2022-11-09T12:07:04.835Z,49.40
2022-11-09T12:09:17.535Z,49.50
2022-11-09T12:11:53.397Z,49.40
2022-11-09T12:14:19.389Z,49.40
2022-11-09T12:16:48.049Z,49.30
2022-11-09T12:19:04.498Z,49.40
2022-11-09T12:21:31.372Z,49.40
2022-11-09T12:23:46.575Z,49.30
2022-11-09T12:26:16.168Z,49.40
2022-11-09T12:28:45.667Z,49.40
2022-11-09T12:30:59.525Z,49.40
2022-11-09T12:33:14.256Z,49.40
2022-11-09T12:35:42.022Z,49.40
2022-11-09T12:38:05.234Z,49.50
2022-11-09T12:40:22.257Z,50.10
2022-11-09T12:42:37.094Z,50.20
2022-11-09T12:45:07.109Z,49.60
2022-11-09T12:47:21.207Z,49.50
2022-11-09T12:49:38.450Z,49.50
2022-11-09T12:51:40.348Z,49.60
2022-11-09T12:53:42.035Z,49.60
2022-11-09T12:56:01.993Z,49.60
2022-11-09T12:58:04.213Z,49.70
2022-11-09T13:00:06.548Z,49.80
2022-11-09T13:02:27.173Z,49.70
2022-11-09T13:04:29.298Z,49.60
2022-11-09T13:06:33.092Z,49.70
2022-11-09T13:08:35.402Z,49.60
2022-11-09T13:10:38.692Z,49.70
2022-11-09T13:12:42.703Z,49.70
2022-11-09T13:14:45.392Z,49.70
2022-11-09T13:16:47.379Z,49.80
2022-11-09T13:18:51.822Z,49.70
2022-11-09T13:20:55.810Z,49.80
2022-11-09T13:23:00.859Z,49.80
2022-11-09T13:25:23.992Z,49.80
2022-11-09T13:27:44.624Z,49.80
2022-11-09T13:29:56.040Z,49.90
2022-11-09T13:32:11.701Z,49.80
2022-11-09T13:34:39.458Z,49.80
2022-11-09T13:36:41.103Z,49.80
2022-11-09T13:38:42.909Z,49.90
2022-11-09T13:41:02.001Z,49.90
2022-11-09T13:43:08.138Z,49.90
2022-11-09T13:45:21.771Z,49.90
2022-11-09T13:47:27.824Z,49.90
2022-11-09T13:49:38.115Z,49.90
2022-11-09T13:51:47.872Z,49.90
2022-11-09T13:53:52.813Z,50.00
2022-11-09T13:55:54.449Z,49.90
2022-11-09T13:58:00.563Z,49.90
2022-11-09T14:00:05.818Z,50.00
2022-11-09T14:02:25.031Z,50.00
2022-11-09T14:04:26.749Z,50.00
2022-11-09T14:06:29.993Z,49.90
2022-11-09T14:08:40.057Z,50.00
2022-11-09T14:10:58.495Z,50.00
2022-11-09T14:13:42.379Z,50.00
2022-11-09T14:16:04.218Z,50.00
2022-11-09T14:18:24.487Z,50.00
2022-11-09T14:20:46.763Z,50.00
2022-11-09T14:22:48.556Z,50.00
2022-11-09T14:24:50.483Z,50.00
2022-11-09T14:27:10.202Z,50.00
2022-11-09T14:29:23.151Z,50.00
2022-11-09T14:31:30.795Z,50.00
2022-11-09T14:33:35.368Z,50.00
2022-11-09T14:35:39.116Z,50.10
2022-11-09T14:37:44.904Z,50.10
2022-11-09T14:39:52.355Z,50.10
2022-11-09T14:41:55.250Z,50.10
2022-11-09T14:43:59.239Z,50.10
2022-11-09T14:46:03.244Z,50.10
2022-11-09T14:48:05.281Z,50.10
2022-11-09T14:50:15.047Z,50.00
2022-11-09T14:52:21.311Z,50.00
2022-11-09T14:54:26.010Z,50.00
2022-11-09T14:56:29.616Z,50.00
2022-11-09T14:58:34.101Z,50.00
2022-11-09T15:00:35.750Z,50.00
2022-11-09T15:02:39.216Z,50.00
2022-11-09T15:05:03.403Z,50.70
2022-11-09T15:07:05.359Z,50.00
2022-11-09T15:09:09.147Z,50.00
2022-11-09T15:11:10.965Z,50.10
2022-11-09T15:13:12.609Z,50.10
2022-11-09T15:15:24.285Z,50.00
2022-11-09T15:17:35.538Z,50.10
2022-11-09T15:19:48.139Z,50.10
2022-11-09T15:21:50.402Z,50.10
2022-11-09T15:24:10.213Z,50.10
2022-11-09T15:26:33.387Z,50.10
2022-11-09T15:28:45.180Z,50.10
2022-11-09T15:30:54.536Z,50.20
2022-11-09T15:32:56.217Z,50.90
2022-11-09T15:34:59.832Z,50.20
2022-11-09T15:37:01.512Z,50.20
2022-11-09T15:39:05.681Z,50.20
2022-11-09T15:41:16.644Z,50.20
2022-11-09T15:43:18.914Z,50.20
2022-11-09T15:45:21.263Z,50.20
2022-11-09T15:47:33.590Z,50.20
2022-11-09T15:49:35.198Z,50.10
2022-11-09T15:51:36.890Z,50.20
2022-11-09T15:53:38.823Z,50.20
2022-11-09T15:55:40.886Z,50.20
2022-11-09T15:57:43.719Z,50.30
2022-11-09T15:59:50.106Z,50.40
2022-11-09T16:01:52.480Z,50.50
2022-11-09T16:03:54.111Z,50.50
2022-11-09T16:05:55.731Z,50.60
2022-11-09T16:07:57.351Z,50.50
2022-11-09T16:09:58.930Z,50.70
2022-11-09T16:12:00.559Z,50.70
2022-11-09T16:14:03.039Z,50.70
2022-11-09T16:16:07.111Z,50.70
2022-11-09T16:18:08.998Z,50.90
2022-11-09T16:20:11.214Z,50.90
2022-11-09T16:22:12.912Z,51.00
2022-11-09T16:24:16.593Z,51.00
2022-11-09T16:26:20.245Z,50.90
2022-11-09T16:28:23.921Z,51.10
2022-11-09T16:30:25.647Z,51.00
2022-11-09T16:32:27.595Z,51.00
2022-11-09T16:34:30.366Z,51.00
2022-11-09T16:36:32.794Z,51.00
2022-11-09T16:38:39.706Z,51.10
2022-11-09T16:40:41.424Z,51.00
2022-11-09T16:42:43.370Z,51.00
2022-11-09T16:44:48.255Z,51.00
2022-11-09T16:46:50.066Z,51.00
2022-11-09T16:48:53.357Z,51.00
2022-11-09T16:50:55.017Z,51.10
2022-11-09T16:52:56.615Z,51.10
2022-11-09T16:54:58.216Z,51.10
2022-11-09T16:57:00.115Z,51.10
2022-11-09T16:59:01.829Z,51.10
2022-11-09T17:01:11.403Z,51.10
2022-11-09T17:03:14.687Z,51.20
2022-11-09T17:05:16.370Z,51.30
2022-11-09T17:07:17.979Z,51.30
2022-11-09T17:09:20.788Z,51.20
2022-11-09T17:11:22.443Z,51.20
2022-11-09T17:13:24.364Z,51.20
2022-11-09T17:15:26.532Z,51.20
2022-11-09T17:17:28.348Z,51.10
2022-11-09T17:19:34.748Z,51.10
2022-11-09T17:21:37.889Z,51.10
2022-11-09T17:23:39.861Z,51.00
2022-11-09T17:25:41.496Z,51.00
2022-11-09T17:27:43.123Z,50.90
2022-11-09T17:29:44.756Z,51.10
2022-11-09T17:31:46.362Z,51.60
2022-11-09T17:33:48.249Z,51.40
2022-11-09T17:35:58.858Z,51.70
2022-11-09T17:38:00.538Z,51.90
2022-11-09T17:40:02.833Z,51.80
2022-11-09T17:42:04.511Z,52.10
2022-11-09T17:44:06.142Z,51.90
2022-11-09T17:46:11.068Z,51.90
2022-11-09T17:48:12.651Z,52.00
2022-11-09T17:50:14.383Z,52.00
2022-11-09T17:52:16.760Z,52.00
2022-11-09T17:54:18.362Z,52.00
2022-11-09T17:56:20.044Z,52.10
2022-11-09T17:58:22.383Z,52.10
2022-11-09T18:00:24.269Z,52.20
2022-11-09T18:02:26.058Z,52.20
2022-11-09T18:04:27.910Z,52.30
2022-11-09T18:06:29.892Z,52.30
2022-11-09T18:08:31.554Z,52.30
2022-11-09T18:10:33.166Z,52.30
2022-11-09T18:12:34.867Z,52.30
2022-11-09T18:14:36.475Z,52.30
2022-11-09T18:16:38.355Z,53.00
2022-11-09T18:18:40.282Z,52.30
2022-11-09T18:20:41.889Z,52.30
2022-11-09T18:22:43.503Z,52.40
2022-11-09T18:24:45.090Z,52.30
2022-11-09T18:26:46.752Z,52.30
2022-11-09T18:28:48.462Z,52.80
2022-11-09T18:30:50.089Z,52.10
2022-11-09T18:32:51.697Z,52.00
2022-11-09T18:34:53.364Z,51.90
2022-11-09T18:36:55.032Z,51.90
2022-11-09T18:38:57.476Z,52.50
2022-11-09T18:41:07.477Z,51.90
2022-11-09T18:43:09.104Z,51.80
2022-11-09T18:45:10.959Z,51.70
2022-11-09T18:47:13.690Z,51.70
2022-11-09T18:49:15.492Z,51.70
2022-11-09T18:51:17.478Z,51.60
2022-11-09T18:53:21.370Z,51.70
2022-11-09T18:55:23.239Z,51.60
2022-11-09T18:57:24.900Z,51.60
2022-11-09T18:59:26.492Z,51.50
2022-11-09T19:01:28.512Z,51.50
2022-11-09T19:03:30.373Z,51.40
2022-11-09T19:05:32.148Z,51.40
2022-11-09T19:07:33.840Z,51.40
2022-11-09T19:09:35.720Z,51.50
2022-11-09T19:11:37.403Z,51.40
2022-11-09T19:13:39.605Z,51.30
2022-11-09T19:15:45.269Z,51.30
2022-11-09T19:17:46.860Z,51.30
2022-11-09T19:19:48.842Z,51.40
2022-11-09T19:21:53.208Z,52.00
2022-11-09T19:23:56.120Z,52.10
2022-11-09T19:25:57.706Z,52.40
2022-11-09T19:27:59.581Z,52.40
2022-11-09T19:30:06.321Z,52.60
2022-11-09T19:32:10.750Z,52.40
2022-11-09T19:34:14.410Z,52.50
2022-11-09T19:36:29.775Z,52.50
2022-11-09T19:38:32.396Z,52.50
2022-11-09T19:40:39.385Z,52.50
2022-11-09T19:42:41.594Z,52.50
2022-11-09T19:44:43.217Z,52.80
2022-11-09T19:46:45.435Z,52.70
2022-11-09T19:48:47.456Z,52.60
2022-11-09T19:50:50.864Z,52.60
2022-11-09T19:52:52.469Z,52.50
2022-11-09T19:54:54.125Z,52.50
2022-11-09T19:56:55.791Z,52.60
2022-11-09T19:59:00.490Z,52.50
2022-11-09T20:01:10.032Z,52.60
2022-11-09T20:03:11.678Z,52.40
2022-11-09T20:05:13.424Z,52.50
2022-11-09T20:07:15.156Z,52.50
2022-11-09T20:09:16.767Z,52.50
2022-11-09T20:11:39.929Z,52.50
2022-11-09T20:13:41.591Z,52.50
2022-11-09T20:15:43.214Z,52.50
2022-11-09T20:17:45.421Z,52.50
2022-11-09T20:19:47.045Z,52.50
2022-11-09T20:21:49.540Z,52.50
2022-11-09T20:23:51.246Z,52.50
2022-11-09T20:25:52.935Z,52.40
2022-11-09T20:27:54.605Z,52.40
2022-11-09T20:29:56.381Z,52.40
2022-11-09T20:31:57.971Z,52.40
2022-11-09T20:34:02.253Z,52.40
2022-11-09T20:36:04.589Z,52.40
2022-11-09T20:38:06.195Z,52.40
2022-11-09T20:40:08.431Z,52.40
2022-11-09T20:42:10.780Z,52.40
2022-11-09T20:44:12.479Z,52.30
2022-11-09T20:46:19.815Z,52.30
2022-11-09T20:48:47.032Z,52.30
2022-11-09T20:50:43.741Z,52.30
2022-11-09T20:52:45.368Z,52.40
2022-11-09T20:54:47.030Z,52.30
2022-11-09T20:56:48.642Z,52.60
2022-11-09T20:58:50.358Z,52.80
2022-11-09T21:01:05.091Z,52.80
2022-11-09T21:03:08.410Z,52.80
2022-11-09T21:05:10.021Z,52.90
2022-11-09T21:07:11.700Z,52.80
2022-11-09T21:09:13.425Z,52.80
2022-11-09T21:11:15.055Z,52.90
2022-11-09T21:13:16.778Z,52.90
2022-11-09T21:15:18.663Z,52.90
2022-11-09T21:17:20.497Z,53.00
2022-11-09T21:19:22.177Z,52.90
2022-11-09T21:21:25.085Z,52.90
2022-11-09T21:23:26.688Z,52.90
2022-11-09T21:25:46.761Z,52.90
2022-11-09T21:28:07.103Z,52.80
2022-11-09T21:30:09.498Z,52.80
2022-11-09T21:32:12.113Z,52.80
2022-11-09T21:34:13.798Z,52.90
2022-11-09T21:36:15.398Z,52.90
2022-11-09T21:38:17.009Z,52.90
2022-11-09T21:40:18.588Z,52.90
2022-11-09T21:42:20.231Z,52.80
2022-11-09T21:44:21.865Z,52.80
2022-11-09T21:46:24.200Z,52.80
2022-11-09T21:48:25.775Z,52.80
2022-11-09T21:50:27.379Z,52.80
2022-11-09T21:52:29.005Z,52.80
2022-11-09T21:54:30.770Z,52.80
2022-11-09T21:56:33.192Z,52.70
2022-11-09T21:58:34.867Z,52.70
2022-11-09T22:00:36.519Z,52.70
2022-11-09T22:02:38.106Z,52.80
2022-11-09T22:04:39.698Z,52.70
2022-11-09T22:06:43.259Z,52.70
2022-11-09T22:08:45.859Z,52.70
2022-11-09T22:10:47.519Z,52.80
2022-11-09T22:13:07.974Z,52.70
2022-11-09T22:15:31.382Z,52.80
2022-11-09T22:17:33.019Z,52.80
2022-11-09T22:19:53.727Z,52.80
2022-11-09T22:21:55.367Z,52.80
2022-11-09T22:23:57.526Z,52.80
2022-11-09T22:26:02.019Z,52.80
2022-11-09T22:28:03.648Z,52.80
2022-11-09T22:30:05.949Z,52.80
2022-11-09T22:32:07.718Z,52.80
2022-11-09T22:34:09.319Z,52.80
2022-11-09T22:36:12.806Z,52.80
2022-11-09T22:38:14.406Z,52.90
2022-11-09T22:40:18.156Z,52.80
2022-11-09T22:42:19.822Z,52.80
2022-11-09T22:44:21.417Z,52.80
2022-11-09T22:46:23.105Z,53.50
2022-11-09T22:48:24.729Z,53.00
2022-11-09T22:50:26.331Z,52.80
2022-11-09T22:52:27.924Z,52.90
2022-11-09T22:54:29.516Z,52.90
2022-11-09T22:56:31.166Z,52.90
2022-11-09T22:58:32.804Z,52.90
2022-11-09T23:00:34.397Z,53.00
2022-11-09T23:02:36.162Z,52.90
2022-11-09T23:04:37.750Z,52.90
2022-11-09T23:06:39.371Z,52.90
2022-11-09T23:08:41.042Z,52.90
2022-11-09T23:10:42.705Z,52.90
2022-11-09T23:12:44.297Z,52.90
2022-11-09T23:15:04.174Z,52.90
2022-11-09T23:17:25.779Z,52.90
2022-11-09T23:19:27.382Z,52.90
2022-11-09T23:21:36.907Z,52.90
2022-11-09T23:23:39.597Z,53.00
2022-11-09T23:25:56.866Z,52.90
2022-11-09T23:27:59.267Z,53.00
2022-11-09T23:30:00.877Z,53.00
2022-11-09T23:32:02.503Z,53.00
2022-11-09T23:34:08.926Z,53.00
2022-11-09T23:36:11.738Z,53.00
2022-11-09T23:38:13.342Z,53.00
2022-11-09T23:40:15.028Z,53.00
2022-11-09T23:42:16.617Z,53.00
2022-11-09T23:44:18.201Z,53.00
2022-11-09T23:46:19.825Z,53.00
2022-11-09T23:48:21.492Z,53.00
2022-11-09T23:50:23.222Z,52.90
2022-11-09T23:52:24.839Z,52.90
2022-11-09T23:54:26.424Z,53.00
2022-11-09T23:56:28.005Z,52.90
2022-11-09T23:58:30.024Z,53.00
